createdAt,value
2019-03-23T00:00:24.214Z,25.27
2019-03-23T00:02:58.860Z,25.10
2019-03-23T00:05:33.379Z,25.35
2019-03-23T00:08:07.837Z,25.60
2019-03-23T00:10:42.306Z,25.23
2019-03-23T00:13:16.809Z,25.72
2019-03-23T00:15:51.257Z,25.00
2019-03-23T00:18:25.679Z,26.05
2019-03-23T00:21:00.335Z,26.23
2019-03-23T00:23:34.856Z,25.55
2019-03-23T00:26:09.667Z,25.52
2019-03-23T00:28:44.072Z,26.25
2019-03-23T00:31:18.814Z,26.45
2019-03-23T00:33:53.106Z,25.80
2019-03-23T00:36:27.504Z,25.92
2019-03-23T00:39:02.072Z,25.72
2019-03-23T00:41:36.848Z,25.52
2019-03-23T00:44:11.595Z,26.05
2019-03-23T00:46:46.040Z,26.35
2019-03-23T00:49:20.863Z,26.70
2019-03-23T00:51:55.268Z,25.55
2019-03-23T00:54:30.241Z,26.55
2019-03-23T00:57:04.949Z,26.12
2019-03-23T00:59:39.420Z,25.88
2019-03-23T01:02:14.017Z,26.75
2019-03-23T01:04:48.510Z,25.90
2019-03-23T01:07:23.122Z,25.90
2019-03-23T01:09:57.446Z,25.65
2019-03-23T01:12:33.136Z,26.52
2019-03-23T01:15:08.331Z,26.80
2019-03-23T01:17:42.980Z,26.65
2019-03-23T01:20:17.620Z,26.55
2019-03-23T01:22:52.496Z,25.65
2019-03-23T01:25:26.949Z,25.43
2019-03-23T01:28:01.535Z,25.55
2019-03-23T01:30:37.176Z,25.25
2019-03-23T01:33:12.311Z,25.48
2019-03-23T01:35:46.911Z,25.77
2019-03-23T01:38:21.484Z,25.57
2019-03-23T01:40:55.802Z,25.10
2019-03-23T01:43:30.480Z,24.95
2019-03-23T01:46:05.094Z,24.45
2019-03-23T01:48:39.709Z,24.27
2019-03-23T01:51:14.326Z,25.27
2019-03-23T01:53:48.914Z,25.05
2019-03-23T01:56:23.539Z,25.05
2019-03-23T01:58:58.159Z,24.60
2019-03-23T02:01:32.852Z,24.20
2019-03-23T02:04:07.405Z,24.27
2019-03-23T02:06:41.837Z,23.90
2019-03-23T02:09:16.428Z,24.20
2019-03-23T02:11:51.184Z,25.27
2019-03-23T02:14:25.753Z,24.63
2019-03-23T02:17:00.437Z,24.47
2019-03-23T02:19:34.840Z,23.38
2019-03-23T02:22:09.339Z,24.05
2019-03-23T02:24:44.011Z,24.50
2019-03-23T02:27:19.287Z,24.45
2019-03-23T02:29:53.991Z,23.22
2019-03-23T02:32:28.610Z,23.73
2019-03-23T02:35:03.008Z,23.77
2019-03-23T02:37:37.519Z,24.57
2019-03-23T02:40:13.575Z,24.30
2019-03-23T02:42:48.762Z,25.90
2019-03-23T02:45:23.501Z,24.12
2019-03-23T02:47:58.314Z,24.18
2019-03-23T02:50:32.977Z,24.70
2019-03-23T02:53:07.974Z,22.80
2019-03-23T02:55:42.791Z,23.90
2019-03-23T02:58:17.367Z,24.30
2019-03-23T03:00:51.835Z,23.92
2019-03-23T03:03:26.146Z,23.73
2019-03-23T03:06:01.419Z,24.02
2019-03-23T03:08:36.087Z,23.80
2019-03-23T03:11:11.660Z,24.27
2019-03-23T03:13:46.102Z,23.50
2019-03-23T03:16:20.643Z,24.02
2019-03-23T03:18:55.399Z,24.05
2019-03-23T03:21:29.989Z,23.92
2019-03-23T03:24:04.541Z,23.15
2019-03-23T03:26:38.960Z,23.57
2019-03-23T03:29:13.469Z,23.12
2019-03-23T03:31:48.163Z,22.87
2019-03-23T03:34:22.946Z,22.85
2019-03-23T03:36:57.463Z,23.57
2019-03-23T03:39:32.097Z,23.32
2019-03-23T03:42:06.794Z,23.27
2019-03-23T03:44:41.657Z,23.75
2019-03-23T03:47:16.257Z,23.50
2019-03-23T03:49:51.033Z,23.60
2019-03-23T03:52:25.517Z,24.25
2019-03-23T03:54:59.843Z,22.93
2019-03-23T03:57:34.492Z,23.85
2019-03-23T04:00:09.840Z,23.22
2019-03-23T04:02:44.473Z,23.25
2019-03-23T04:05:18.940Z,23.75
2019-03-23T04:07:53.791Z,23.90
2019-03-23T04:10:28.563Z,22.93
2019-03-23T04:13:03.007Z,23.87
2019-03-23T04:15:37.985Z,24.27
2019-03-23T04:18:12.622Z,24.43
2019-03-23T04:20:47.406Z,23.73
2019-03-23T04:23:22.379Z,23.45
2019-03-23T04:25:57.212Z,23.60
2019-03-23T04:28:32.437Z,23.30
2019-03-23T04:31:07.066Z,22.95
2019-03-23T04:33:41.978Z,24.02
2019-03-23T04:36:16.397Z,24.12
2019-03-23T04:38:50.977Z,23.70
2019-03-23T04:41:25.673Z,23.77
2019-03-23T04:44:00.365Z,24.23
2019-03-23T04:46:35.751Z,23.55
2019-03-23T04:49:10.153Z,23.25
2019-03-23T04:51:44.716Z,23.20
2019-03-23T04:54:19.556Z,23.02
2019-03-23T04:56:54.233Z,22.93
2019-03-23T04:59:28.968Z,23.27
2019-03-23T05:02:03.441Z,23.02
2019-03-23T05:04:37.921Z,22.50
2019-03-23T05:07:12.387Z,22.30
2019-03-23T05:09:46.869Z,21.90
2019-03-23T05:12:21.415Z,22.75
2019-03-23T05:14:55.780Z,21.82
2019-03-23T05:17:30.420Z,22.32
2019-03-23T05:20:04.939Z,22.65
2019-03-23T05:22:39.382Z,22.17
2019-03-23T05:25:24.222Z,22.17
2019-03-23T05:27:58.694Z,22.48
2019-03-23T05:30:33.181Z,22.48
2019-03-23T05:33:07.910Z,21.90
2019-03-23T05:35:42.709Z,21.57
2019-03-23T05:38:17.118Z,21.17
2019-03-23T05:40:51.773Z,20.72
2019-03-23T05:43:26.414Z,22.00
2019-03-23T05:46:00.899Z,21.73
2019-03-23T05:48:35.713Z,21.97
2019-03-23T05:51:10.188Z,20.45
2019-03-23T05:53:44.873Z,20.60
2019-03-23T05:56:19.488Z,21.07
2019-03-23T05:58:54.676Z,20.10
2019-03-23T06:01:29.104Z,20.57
2019-03-23T06:04:03.455Z,20.60
2019-03-23T06:06:37.999Z,20.90
2019-03-23T06:09:12.709Z,20.40
2019-03-23T06:11:47.372Z,19.70
2019-03-23T06:14:21.944Z,19.95
2019-03-23T06:16:56.396Z,19.92
2019-03-23T06:19:31.016Z,20.10
2019-03-23T06:22:05.675Z,19.70
2019-03-23T06:24:40.337Z,19.92
2019-03-23T06:27:14.823Z,19.65
2019-03-23T06:29:49.569Z,19.70
2019-03-23T06:32:23.968Z,19.65
2019-03-23T06:34:58.377Z,19.50
2019-03-23T06:37:33.046Z,19.25
2019-03-23T06:40:08.693Z,18.98
2019-03-23T06:42:43.023Z,19.90
2019-03-23T06:45:17.818Z,19.15
2019-03-23T06:47:52.454Z,17.62
2019-03-23T06:50:27.144Z,19.17
2019-03-23T06:53:01.646Z,18.92
2019-03-23T06:55:36.398Z,18.87
2019-03-23T06:58:10.823Z,19.02
2019-03-23T07:00:45.502Z,19.07
2019-03-23T07:03:21.189Z,18.87
2019-03-23T07:05:55.906Z,19.00
2019-03-23T07:08:32.248Z,18.27
2019-03-23T07:11:07.027Z,19.10
2019-03-23T07:13:41.636Z,18.25
2019-03-23T07:16:16.218Z,18.48
2019-03-23T07:18:51.091Z,18.77
2019-03-23T07:21:25.662Z,18.48
2019-03-23T07:24:00.608Z,18.35
2019-03-23T07:26:35.258Z,17.87
2019-03-23T07:29:10.201Z,18.27
2019-03-23T07:31:44.913Z,17.77
2019-03-23T07:34:19.556Z,17.87
2019-03-23T07:36:54.180Z,17.42
2019-03-23T07:39:30.509Z,17.95
2019-03-23T07:42:05.423Z,17.48
2019-03-23T07:44:40.820Z,16.85
2019-03-23T07:47:15.175Z,17.37
2019-03-23T07:49:49.906Z,17.60
2019-03-23T07:52:24.312Z,17.00
2019-03-23T07:54:59.044Z,16.30
2019-03-23T07:57:33.582Z,16.17
2019-03-23T08:00:09.039Z,16.97
2019-03-23T08:02:43.497Z,16.70
2019-03-23T08:05:18.338Z,17.30
2019-03-23T08:07:53.199Z,16.60
2019-03-23T08:10:35.406Z,16.52
2019-03-23T08:13:10.316Z,16.10
2019-03-23T08:15:44.778Z,15.98
2019-03-23T08:18:19.326Z,15.78
2019-03-23T08:20:53.708Z,15.23
2019-03-23T08:23:28.302Z,15.70
2019-03-23T08:26:02.802Z,15.28
2019-03-23T08:28:37.366Z,15.45
2019-03-23T08:31:11.792Z,15.58
2019-03-23T08:33:46.391Z,15.03
2019-03-23T08:36:20.838Z,15.40
2019-03-23T08:38:55.658Z,15.03
2019-03-23T08:41:30.632Z,14.75
2019-03-23T08:44:05.247Z,14.55
2019-03-23T08:46:39.748Z,14.85
2019-03-23T08:49:14.405Z,14.15
2019-03-23T08:51:49.130Z,14.60
2019-03-23T08:54:23.500Z,14.10
2019-03-23T08:56:58.221Z,13.98
2019-03-23T08:59:32.690Z,13.95
2019-03-23T09:02:07.632Z,14.53
2019-03-23T09:04:42.118Z,14.10
2019-03-23T09:07:17.043Z,13.85
2019-03-23T09:09:59.193Z,13.75
2019-03-23T09:12:27.899Z,13.20
2019-03-23T09:15:02.633Z,13.53
2019-03-23T09:17:37.695Z,13.15
2019-03-23T09:20:14.134Z,13.15
2019-03-23T09:22:48.760Z,13.08
2019-03-23T09:25:23.366Z,13.08
2019-03-23T09:27:57.821Z,13.00
2019-03-23T09:30:32.484Z,13.78
2019-03-23T09:33:07.020Z,13.43
2019-03-23T09:35:41.302Z,12.37
2019-03-23T09:38:15.686Z,12.63
2019-03-23T09:40:50.227Z,13.10
2019-03-23T09:43:24.662Z,12.75
2019-03-23T09:45:59.016Z,12.47
2019-03-23T09:48:33.448Z,12.43
2019-03-23T09:51:07.923Z,12.37
2019-03-23T09:53:42.345Z,12.65
2019-03-23T09:56:16.683Z,12.55
2019-03-23T09:58:51.086Z,12.25
2019-03-23T10:01:25.759Z,12.30
2019-03-23T10:04:00.156Z,13.03
2019-03-23T10:06:34.580Z,12.05
2019-03-23T10:09:09.804Z,12.25
2019-03-23T10:11:44.477Z,11.90
2019-03-23T10:14:19.186Z,11.40
2019-03-23T10:16:53.869Z,11.40
2019-03-23T10:19:28.426Z,12.03
2019-03-23T10:22:03.112Z,12.82
2019-03-23T10:24:37.814Z,12.03
2019-03-23T10:27:13.754Z,12.00
2019-03-23T10:29:48.472Z,12.33
2019-03-23T10:32:23.247Z,11.85
2019-03-23T10:34:57.848Z,12.75
2019-03-23T10:37:32.427Z,12.18
2019-03-23T10:40:07.477Z,12.55
2019-03-23T10:42:43.595Z,12.05
2019-03-23T10:45:18.407Z,11.50
2019-03-23T10:47:53.306Z,12.47
2019-03-23T10:50:28.040Z,12.05
2019-03-23T10:53:02.824Z,11.97
2019-03-23T10:55:37.125Z,11.88
2019-03-23T10:58:11.595Z,12.37
2019-03-23T11:00:46.344Z,11.63
2019-03-23T11:03:20.880Z,11.55
2019-03-23T11:05:55.438Z,12.40
2019-03-23T11:08:30.195Z,12.30
2019-03-23T11:11:05.593Z,11.95
2019-03-23T11:13:39.897Z,11.83
2019-03-23T11:16:14.584Z,11.65
2019-03-23T11:18:49.214Z,11.00
2019-03-23T11:21:23.801Z,11.60
2019-03-23T11:23:58.173Z,10.58
2019-03-23T11:26:32.655Z,10.95
2019-03-23T11:29:08.423Z,11.30
2019-03-23T11:31:43.149Z,11.22
2019-03-23T11:34:18.286Z,10.45
2019-03-23T11:36:52.847Z,11.20
2019-03-23T11:39:27.481Z,10.82
2019-03-23T11:42:01.879Z,11.40
2019-03-23T11:44:36.205Z,11.05
2019-03-23T11:47:11.059Z,11.03
2019-03-23T11:49:45.491Z,11.55
2019-03-23T11:52:20.021Z,11.05
2019-03-23T11:54:54.505Z,10.82
2019-03-23T11:57:28.879Z,10.93
2019-03-23T12:00:03.573Z,10.50
2019-03-23T12:02:38.187Z,10.88
2019-03-23T12:05:13.167Z,11.05
2019-03-23T12:07:47.742Z,11.43
2019-03-23T12:10:22.146Z,11.20
2019-03-23T12:12:56.704Z,10.58
2019-03-23T12:15:31.207Z,10.70
2019-03-23T12:18:05.529Z,10.98
2019-03-23T12:20:40.351Z,10.30
2019-03-23T12:23:14.908Z,11.05
2019-03-23T12:25:49.222Z,10.23
2019-03-23T12:28:23.751Z,10.48
2019-03-23T12:30:58.861Z,10.63
2019-03-23T12:33:33.204Z,10.30
2019-03-23T12:36:07.691Z,10.72
2019-03-23T12:38:42.123Z,10.90
2019-03-23T12:41:23.012Z,10.35
2019-03-23T12:43:52.794Z,10.30
2019-03-23T12:46:27.400Z,10.23
2019-03-23T12:49:02.066Z,10.58
2019-03-23T12:51:36.497Z,10.40
2019-03-23T12:54:10.957Z,10.40
2019-03-23T12:56:45.445Z,10.20
2019-03-23T12:59:19.903Z,10.32
2019-03-23T13:01:54.346Z,10.30
2019-03-23T13:04:29.004Z,11.08
2019-03-23T13:07:03.482Z,10.45
2019-03-23T13:09:38.193Z,11.35
2019-03-23T13:12:12.854Z,11.73
2019-03-23T13:14:54.938Z,11.75
2019-03-23T13:17:29.510Z,11.20
2019-03-23T13:20:03.965Z,10.55
2019-03-23T13:22:38.962Z,11.12
2019-03-23T13:25:13.823Z,14.47
2019-03-23T13:27:49.097Z,16.00
2019-03-23T13:30:23.800Z,15.60
2019-03-23T13:32:58.308Z,16.52
2019-03-23T13:35:32.967Z,18.65
2019-03-23T13:38:07.585Z,16.60
2019-03-23T13:40:42.327Z,15.65
2019-03-23T13:43:16.923Z,17.05
2019-03-23T13:45:52.467Z,12.25
2019-03-23T13:48:27.166Z,11.40
2019-03-23T13:51:01.865Z,10.82
2019-03-23T13:53:37.794Z,11.33
2019-03-23T13:56:12.520Z,11.05
2019-03-23T13:58:47.050Z,11.53
2019-03-23T14:01:22.271Z,11.57
2019-03-23T14:03:57.240Z,11.40
2019-03-23T14:06:31.880Z,12.37
2019-03-23T14:09:06.845Z,11.97
2019-03-23T14:11:41.185Z,11.73
2019-03-23T14:14:15.738Z,11.83
2019-03-23T14:16:50.565Z,11.80
2019-03-23T14:19:25.274Z,12.20
2019-03-23T14:21:59.806Z,12.00
2019-03-23T14:24:34.180Z,12.68
2019-03-23T14:27:08.619Z,12.10
2019-03-23T14:29:43.032Z,11.75
2019-03-23T14:32:18.012Z,12.05
2019-03-23T14:34:52.742Z,12.40
2019-03-23T14:37:27.214Z,11.63
2019-03-23T14:40:01.948Z,12.40
2019-03-23T14:42:37.439Z,12.53
2019-03-23T14:45:12.384Z,12.05
2019-03-23T14:47:46.810Z,11.97
2019-03-23T14:50:21.435Z,12.07
2019-03-23T14:52:55.798Z,12.73
2019-03-23T14:55:30.190Z,13.03
2019-03-23T14:58:04.888Z,12.30
2019-03-23T15:00:39.740Z,12.53
2019-03-23T15:03:14.339Z,13.32
2019-03-23T15:05:48.717Z,13.22
2019-03-23T15:08:23.166Z,12.50
2019-03-23T15:10:57.817Z,12.85
2019-03-23T15:13:32.164Z,11.85
2019-03-23T15:16:06.683Z,12.47
2019-03-23T15:18:41.299Z,12.40
2019-03-23T15:21:15.839Z,13.32
2019-03-23T15:23:50.704Z,12.63
2019-03-23T15:26:25.302Z,12.50
2019-03-23T15:29:00.269Z,13.15
2019-03-23T15:31:35.210Z,12.47
2019-03-23T15:34:09.861Z,12.05
2019-03-23T15:36:44.526Z,12.55
2019-03-23T15:39:19.262Z,12.95
2019-03-23T15:41:53.770Z,12.60
2019-03-23T15:44:28.071Z,12.23
2019-03-23T15:47:02.792Z,13.00
2019-03-23T15:49:37.273Z,12.47
2019-03-23T15:52:12.376Z,12.73
2019-03-23T15:54:47.232Z,12.90
2019-03-23T15:57:22.056Z,13.20
2019-03-23T15:59:56.703Z,12.90
2019-03-23T16:02:31.617Z,12.70
2019-03-23T16:05:06.561Z,12.55
2019-03-23T16:07:41.368Z,12.28
2019-03-23T16:10:16.133Z,12.95
2019-03-23T16:12:50.717Z,13.65
2019-03-23T16:15:25.293Z,13.25
2019-03-23T16:18:01.578Z,13.62
2019-03-23T16:20:36.170Z,13.18
2019-03-23T16:23:10.616Z,13.75
2019-03-23T16:25:45.171Z,14.18
2019-03-23T16:28:19.655Z,13.88
2019-03-23T16:30:54.163Z,13.08
2019-03-23T16:33:29.052Z,14.68
2019-03-23T16:36:03.707Z,14.15
2019-03-23T16:38:38.098Z,13.98
2019-03-23T16:41:12.666Z,13.65
2019-03-23T16:43:47.306Z,14.05
2019-03-23T16:46:21.765Z,13.62
2019-03-23T16:48:56.454Z,14.45
2019-03-23T16:51:30.963Z,13.62
2019-03-23T16:54:05.596Z,13.60
2019-03-23T16:56:40.375Z,13.62
2019-03-23T16:59:14.894Z,14.15
2019-03-23T17:01:49.451Z,14.45
2019-03-23T17:04:24.119Z,14.75
2019-03-23T17:06:58.614Z,14.53
2019-03-23T17:09:32.978Z,14.70
2019-03-23T17:12:07.590Z,14.65
2019-03-23T17:14:42.064Z,14.63
2019-03-23T17:17:16.384Z,14.68
2019-03-23T17:19:51.109Z,14.83
2019-03-23T17:22:25.524Z,15.23
2019-03-23T17:25:00.045Z,15.15
2019-03-23T17:27:34.600Z,15.80
2019-03-23T17:30:10.576Z,15.90
2019-03-23T17:32:45.074Z,15.58
2019-03-23T17:35:19.768Z,15.40
2019-03-23T17:37:54.227Z,15.75
2019-03-23T17:40:29.189Z,15.93
2019-03-23T17:43:06.097Z,16.15
2019-03-23T17:45:40.278Z,15.78
2019-03-23T17:48:14.892Z,16.10
2019-03-23T17:50:49.394Z,16.23
2019-03-23T17:53:23.870Z,16.15
2019-03-23T17:55:58.267Z,16.40
2019-03-23T17:58:32.653Z,17.10
2019-03-23T18:01:07.750Z,16.85
2019-03-23T18:03:42.504Z,17.65
2019-03-23T18:06:17.066Z,16.20
2019-03-23T18:08:51.548Z,16.67
2019-03-23T18:11:26.362Z,16.93
2019-03-23T18:14:00.934Z,17.20
2019-03-23T18:16:35.889Z,17.65
2019-03-23T18:19:10.483Z,18.05
2019-03-23T18:21:44.997Z,17.30
2019-03-23T18:24:19.741Z,17.62
2019-03-23T18:26:54.214Z,17.65
2019-03-23T18:29:28.780Z,17.55
2019-03-23T18:32:04.382Z,18.15
2019-03-23T18:34:39.086Z,18.10
2019-03-23T18:37:13.585Z,18.00
2019-03-23T18:39:48.306Z,17.52
2019-03-23T18:42:23.065Z,17.32
2019-03-23T18:44:57.756Z,18.62
2019-03-23T18:47:32.357Z,18.27
2019-03-23T18:50:07.008Z,18.55
2019-03-23T18:52:41.485Z,18.42
2019-03-23T18:55:16.240Z,18.15
2019-03-23T18:57:50.841Z,18.50
2019-03-23T19:00:42.123Z,19.02
2019-03-23T19:03:16.594Z,18.10
2019-03-23T19:05:50.940Z,18.73
2019-03-23T19:08:25.358Z,18.55
2019-03-23T19:11:00.386Z,19.02
2019-03-23T19:13:38.125Z,19.70
2019-03-23T19:16:11.287Z,19.57
2019-03-23T19:18:45.783Z,19.70
2019-03-23T19:21:20.289Z,19.82
2019-03-23T19:23:55.014Z,19.52
2019-03-23T19:26:29.287Z,19.00
2019-03-23T19:29:04.224Z,19.42
2019-03-23T19:31:38.606Z,19.35
2019-03-23T19:34:13.383Z,20.02
2019-03-23T19:36:47.821Z,19.90
2019-03-23T19:39:22.629Z,19.20
2019-03-23T19:41:57.552Z,18.87
2019-03-23T19:44:32.019Z,20.40
2019-03-23T19:47:06.857Z,20.02
2019-03-23T19:49:41.250Z,20.37
2019-03-23T19:52:15.703Z,19.55
2019-03-23T19:54:50.318Z,20.72
2019-03-23T19:57:25.063Z,20.50
2019-03-23T19:59:59.947Z,20.85
2019-03-23T20:02:34.610Z,20.25
2019-03-23T20:05:09.422Z,20.82
2019-03-23T20:07:44.168Z,20.72
2019-03-23T20:10:18.851Z,20.27
2019-03-23T20:12:53.652Z,20.75
2019-03-23T20:15:28.289Z,21.57
2019-03-23T20:18:02.692Z,20.62
2019-03-23T20:20:37.112Z,21.70
2019-03-23T20:23:12.265Z,20.77
2019-03-23T20:25:46.999Z,21.73
2019-03-23T20:28:21.371Z,20.08
2019-03-23T20:30:56.004Z,21.48
2019-03-23T20:33:30.603Z,20.95
2019-03-23T20:36:05.182Z,21.68
2019-03-23T20:38:39.658Z,21.35
2019-03-23T20:41:14.298Z,20.90
2019-03-23T20:43:48.656Z,20.40
2019-03-23T20:46:23.231Z,21.30
2019-03-23T20:48:58.438Z,20.85
2019-03-23T20:51:33.025Z,21.23
2019-03-23T20:54:07.635Z,21.68
2019-03-23T20:56:42.037Z,21.05
2019-03-23T20:59:16.451Z,21.07
2019-03-23T21:01:50.863Z,21.35
2019-03-23T21:04:25.591Z,20.57
2019-03-23T21:07:00.309Z,20.75
2019-03-23T21:09:34.908Z,20.77
2019-03-23T21:12:09.546Z,21.77
2019-03-23T21:14:44.170Z,21.70
2019-03-23T21:17:18.694Z,21.12
2019-03-23T21:19:53.985Z,22.13
2019-03-23T21:22:28.407Z,20.55
2019-03-23T21:25:02.924Z,21.12
2019-03-23T21:27:38.490Z,20.08
2019-03-23T21:30:14.391Z,21.70
2019-03-23T21:32:48.824Z,21.02
2019-03-23T21:35:23.214Z,20.77
2019-03-23T21:37:58.681Z,20.97
2019-03-23T21:40:35.043Z,21.52
2019-03-23T21:43:10.468Z,20.40
2019-03-23T21:45:44.777Z,20.40
2019-03-23T21:48:19.422Z,20.52
2019-03-23T21:50:53.845Z,20.52
2019-03-23T21:53:28.351Z,20.88
2019-03-23T21:56:02.790Z,20.50
2019-03-23T21:58:37.221Z,21.48
2019-03-23T22:01:11.973Z,20.48
2019-03-23T22:03:46.365Z,21.75
2019-03-23T22:06:20.933Z,20.35
2019-03-23T22:08:55.435Z,19.85
2019-03-23T22:11:29.878Z,20.55
2019-03-23T22:14:04.238Z,21.20
2019-03-23T22:16:38.874Z,20.25
2019-03-23T22:19:13.297Z,20.37
2019-03-23T22:21:47.673Z,21.15
2019-03-23T22:24:22.170Z,20.15
2019-03-23T22:26:56.568Z,21.07
2019-03-23T22:29:31.331Z,19.57
2019-03-23T22:32:05.920Z,20.40
2019-03-23T22:34:40.584Z,20.77
2019-03-23T22:37:14.975Z,21.23
2019-03-23T22:39:49.755Z,19.85
2019-03-23T22:42:24.108Z,19.65
2019-03-23T22:44:59.870Z,20.35
2019-03-23T22:47:34.397Z,21.68
2019-03-23T22:50:09.954Z,21.57
2019-03-23T22:52:44.522Z,21.07
2019-03-23T22:55:19.008Z,20.30
2019-03-23T22:57:53.556Z,21.37
2019-03-23T23:00:43.735Z,20.80
2019-03-23T23:03:18.809Z,21.50
2019-03-23T23:05:53.714Z,20.60
2019-03-23T23:08:28.250Z,21.80
2019-03-23T23:11:02.663Z,22.10
2019-03-23T23:13:37.127Z,21.73
2019-03-23T23:16:11.743Z,21.00
2019-03-23T23:18:46.183Z,21.48
2019-03-23T23:21:21.037Z,22.13
2019-03-23T23:23:55.449Z,21.55
2019-03-23T23:26:29.829Z,22.37
2019-03-23T23:29:04.541Z,21.15
2019-03-23T23:31:38.913Z,21.52
2019-03-23T23:34:13.437Z,22.90
2019-03-23T23:36:47.874Z,22.15
2019-03-23T23:39:22.256Z,21.77
2019-03-23T23:41:56.595Z,21.97
2019-03-23T23:44:31.109Z,21.37
2019-03-23T23:47:05.615Z,21.07
2019-03-23T23:49:40.175Z,22.50
2019-03-23T23:52:14.426Z,22.22
2019-03-23T23:54:48.968Z,22.67
2019-03-23T23:57:23.268Z,21.87
2019-03-23T23:59:57.765Z,22.10
